createdAt,value
2022-11-09T00:01:05.532Z,2.03
2022-11-09T00:03:32.778Z,1.23
2022-11-09T00:06:01.112Z,3.88
2022-11-09T00:08:28.604Z,3.28
2022-11-09T00:10:55.646Z,2.38
2022-11-09T00:13:22.873Z,2.20
2022-11-09T00:15:49.977Z,2.28
2022-11-09T00:18:16.786Z,1.83
2022-11-09T00:20:47.739Z,2.10
2022-11-09T00:23:15.891Z,2.58
2022-11-09T00:25:42.938Z,2.22
2022-11-09T00:28:09.681Z,2.42
2022-11-09T00:30:36.402Z,2.95
2022-11-09T00:33:03.162Z,1.90
2022-11-09T00:35:29.909Z,4.40
2022-11-09T00:37:56.745Z,2.53
2022-11-09T00:40:23.571Z,2.40
2022-11-09T00:42:50.328Z,1.45
2022-11-09T00:45:17.633Z,1.83
2022-11-09T00:47:45.087Z,1.65
2022-11-09T00:50:11.851Z,1.55
2022-11-09T00:52:38.598Z,3.08
2022-11-09T00:55:05.725Z,3.90
2022-11-09T00:57:32.480Z,2.80
2022-11-09T00:59:59.202Z,2.28
2022-11-09T01:02:25.947Z,2.22
2022-11-09T01:04:52.675Z,1.08
2022-11-09T01:07:19.488Z,3.15
2022-11-09T01:09:46.276Z,1.40
2022-11-09T01:12:13.061Z,4.25
2022-11-09T01:14:39.827Z,8.23
2022-11-09T01:17:06.577Z,2.35
2022-11-09T01:19:33.339Z,2.88
2022-11-09T01:22:00.105Z,4.80
2022-11-09T01:24:26.844Z,3.58
2022-11-09T01:26:53.629Z,2.00
2022-11-09T01:29:20.388Z,2.83
2022-11-09T01:31:48.471Z,4.18
2022-11-09T01:34:17.349Z,3.17
2022-11-09T01:36:44.108Z,3.28
2022-11-09T01:39:10.910Z,2.85
2022-11-09T01:41:37.787Z,5.85
2022-11-09T01:44:17.545Z,4.55
2022-11-09T01:46:56.891Z,2.10
2022-11-09T01:49:46.835Z,3.47
2022-11-09T01:52:32.286Z,4.53
2022-11-09T01:55:04.198Z,2.88
2022-11-09T01:57:37.610Z,4.13
2022-11-09T02:00:14.215Z,2.50
2022-11-09T02:02:54.753Z,3.58
2022-11-09T02:05:28.425Z,3.55
2022-11-09T02:07:56.754Z,8.90
2022-11-09T02:10:45.613Z,3.22
2022-11-09T02:13:15.768Z,4.00
2022-11-09T02:15:45.659Z,3.95
2022-11-09T02:18:13.057Z,3.30
2022-11-09T02:20:55.588Z,5.32
2022-11-09T02:23:23.403Z,5.43
2022-11-09T02:25:57.083Z,2.53
2022-11-09T02:28:24.987Z,3.17
2022-11-09T02:30:55.942Z,5.35
2022-11-09T02:33:23.769Z,4.07
2022-11-09T02:35:50.804Z,3.03
2022-11-09T02:38:17.610Z,6.93
2022-11-09T02:40:50.043Z,3.75
2022-11-09T02:43:19.035Z,3.58
2022-11-09T02:45:46.066Z,5.68
2022-11-09T02:48:12.892Z,5.25
2022-11-09T02:50:39.634Z,3.65
2022-11-09T02:53:06.547Z,2.83
2022-11-09T02:55:33.319Z,3.85
2022-11-09T02:58:31.914Z,4.55
2022-11-09T03:01:25.063Z,5.30
2022-11-09T03:04:24.681Z,2.75
2022-11-09T03:07:26.897Z,3.35
2022-11-09T03:10:25.466Z,2.83
2022-11-09T03:13:24.437Z,3.05
2022-11-09T03:16:25.071Z,3.28
2022-11-09T03:19:25.664Z,8.10
2022-11-09T03:22:25.118Z,4.22
2022-11-09T03:24:51.910Z,5.43
2022-11-09T03:27:18.667Z,3.25
2022-11-09T03:29:59.737Z,2.42
2022-11-09T03:32:40.746Z,7.47
2022-11-09T03:35:51.333Z,6.47
2022-11-09T03:38:50.733Z,7.10
2022-11-09T03:41:49.267Z,4.03
2022-11-09T03:44:50.442Z,7.95
2022-11-09T03:47:17.204Z,5.43
2022-11-09T03:49:43.969Z,5.35
2022-11-09T03:52:10.720Z,3.22
2022-11-09T03:54:37.450Z,3.40
2022-11-09T03:57:04.240Z,5.03
2022-11-09T03:59:30.988Z,4.10
2022-11-09T04:01:57.875Z,3.22
2022-11-09T04:04:24.759Z,4.28
2022-11-09T04:06:51.934Z,4.07
2022-11-09T04:09:18.696Z,5.07
2022-11-09T04:11:45.446Z,5.03
2022-11-09T04:14:12.217Z,4.88
2022-11-09T04:16:39.310Z,3.08
2022-11-09T04:19:06.040Z,4.47
2022-11-09T04:21:34.086Z,6.65
2022-11-09T04:24:00.878Z,3.63
2022-11-09T04:26:27.642Z,7.50
2022-11-09T04:28:54.362Z,4.40
2022-11-09T04:31:24.259Z,3.47
2022-11-09T04:33:54.639Z,2.80
2022-11-09T04:36:21.457Z,4.50
2022-11-09T04:38:48.230Z,3.70
2022-11-09T04:41:15.125Z,4.65
2022-11-09T04:43:42.547Z,3.60
2022-11-09T04:46:09.354Z,2.72
2022-11-09T04:48:36.187Z,2.88
2022-11-09T04:51:10.379Z,1.50
2022-11-09T04:53:37.940Z,2.20
2022-11-09T04:56:06.171Z,2.85
2022-11-09T04:58:33.971Z,3.85
2022-11-09T05:01:07.697Z,5.95
2022-11-09T05:03:34.912Z,1.83
2022-11-09T05:06:21.907Z,4.88
2022-11-09T05:08:49.154Z,4.03
2022-11-09T05:11:16.051Z,3.40
2022-11-09T05:13:42.834Z,1.25
2022-11-09T05:16:09.774Z,2.53
2022-11-09T05:18:36.495Z,2.00
2022-11-09T05:21:04.262Z,2.92
2022-11-09T05:23:50.426Z,2.38
2022-11-09T05:26:17.181Z,2.17
2022-11-09T05:28:44.823Z,3.45
2022-11-09T05:31:11.647Z,2.97
2022-11-09T05:33:38.370Z,3.72
2022-11-09T05:36:05.698Z,3.60
2022-11-09T05:38:32.663Z,3.47
2022-11-09T05:40:59.437Z,3.38
2022-11-09T05:43:26.212Z,4.00
2022-11-09T05:45:53.005Z,4.03
2022-11-09T05:48:19.773Z,2.63
2022-11-09T05:50:46.528Z,3.20
2022-11-09T05:53:13.318Z,4.22
2022-11-09T05:55:40.469Z,3.97
2022-11-09T05:58:07.836Z,3.53
2022-11-09T06:00:34.919Z,3.92
2022-11-09T06:03:07.293Z,14.40
2022-11-09T06:05:36.007Z,3.72
2022-11-09T06:08:10.144Z,4.05
2022-11-09T06:10:37.138Z,4.30
2022-11-09T06:13:03.896Z,4.53
2022-11-09T06:15:30.969Z,3.33
2022-11-09T06:17:58.460Z,2.63
2022-11-09T06:20:27.209Z,3.35
2022-11-09T06:23:03.385Z,4.75
2022-11-09T06:25:34.275Z,3.17
2022-11-09T06:28:01.511Z,4.20
2022-11-09T06:30:28.349Z,2.40
2022-11-09T06:33:03.198Z,7.75
2022-11-09T06:35:30.749Z,3.67
2022-11-09T06:37:59.911Z,1.98
2022-11-09T06:40:27.702Z,4.70
2022-11-09T06:43:00.541Z,2.17
2022-11-09T06:45:29.064Z,4.20
2022-11-09T06:48:01.859Z,3.38
2022-11-09T06:50:32.112Z,2.30
2022-11-09T06:53:06.577Z,2.83
2022-11-09T06:55:35.348Z,3.38
2022-11-09T06:58:07.516Z,6.68
2022-11-09T07:00:34.497Z,6.05
2022-11-09T07:03:01.658Z,8.20
2022-11-09T07:05:28.489Z,9.50
2022-11-09T07:07:55.312Z,11.18
2022-11-09T07:10:22.110Z,10.52
2022-11-09T07:12:48.839Z,5.53
2022-11-09T07:15:15.753Z,7.57
2022-11-09T07:17:42.819Z,4.43
2022-11-09T07:20:11.118Z,5.95
2022-11-09T07:22:41.721Z,5.97
2022-11-09T07:25:11.710Z,6.22
2022-11-09T07:27:38.483Z,7.18
2022-11-09T07:30:05.865Z,5.38
2022-11-09T07:35:23.864Z,5.28
2022-11-09T07:37:50.602Z,5.68
2022-11-09T07:40:17.408Z,3.85
2022-11-09T07:42:44.190Z,4.63
2022-11-09T07:45:11.409Z,5.30
2022-11-09T07:47:38.340Z,2.95
2022-11-09T07:50:05.797Z,3.60
2022-11-09T07:52:32.580Z,3.28
2022-11-09T07:54:59.310Z,5.28
2022-11-09T07:57:26.046Z,7.07
2022-11-09T07:59:53.512Z,6.30
2022-11-09T08:02:20.355Z,2.85
2022-11-09T08:04:47.161Z,5.15
2022-11-09T08:07:13.903Z,4.15
2022-11-09T08:09:40.683Z,4.25
2022-11-09T08:12:07.505Z,2.67
2022-11-09T08:14:34.739Z,4.70
2022-11-09T08:17:01.487Z,5.35
2022-11-09T08:19:28.209Z,2.25
2022-11-09T08:21:57.329Z,3.60
2022-11-09T08:24:24.581Z,3.35
2022-11-09T08:26:51.347Z,3.25
2022-11-09T08:29:18.157Z,3.20
2022-11-09T08:31:44.906Z,2.72
2022-11-09T08:34:15.000Z,2.92
2022-11-09T08:36:41.779Z,5.10
2022-11-09T08:39:09.297Z,3.17
2022-11-09T08:41:36.929Z,2.50
2022-11-09T08:44:03.778Z,2.95
2022-11-09T08:46:30.537Z,2.40
2022-11-09T08:48:57.256Z,2.30
2022-11-09T08:51:24.080Z,1.67
2022-11-09T08:53:51.460Z,4.05
2022-11-09T08:56:19.017Z,4.07
2022-11-09T08:58:46.449Z,2.90
2022-11-09T09:01:16.943Z,4.28
2022-11-09T09:03:44.498Z,2.10
2022-11-09T09:06:11.260Z,9.80
2022-11-09T09:08:38.071Z,2.08
2022-11-09T09:11:06.111Z,4.63
2022-11-09T09:13:33.375Z,4.20
2022-11-09T09:16:13.537Z,4.85
2022-11-09T09:18:40.320Z,1.92
2022-11-09T09:21:09.505Z,2.88
2022-11-09T09:23:37.162Z,2.85
2022-11-09T09:26:04.251Z,2.83
2022-11-09T09:28:31.162Z,1.88
2022-11-09T09:31:02.232Z,2.03
2022-11-09T09:33:29.463Z,2.60
2022-11-09T09:35:59.743Z,2.67
2022-11-09T09:38:27.964Z,2.17
2022-11-09T09:41:00.418Z,2.47
2022-11-09T09:43:42.743Z,2.33
2022-11-09T09:46:40.301Z,2.50
2022-11-09T09:49:23.853Z,1.20
2022-11-09T09:51:59.663Z,2.42
2022-11-09T09:54:34.516Z,2.25
2022-11-09T09:57:02.279Z,2.65
2022-11-09T09:59:45.094Z,1.90
2022-11-09T10:02:35.737Z,1.38
2022-11-09T10:05:09.362Z,4.25
2022-11-09T10:08:10.770Z,1.85
2022-11-09T10:10:56.208Z,1.63
2022-11-09T10:14:15.599Z,1.67
2022-11-09T10:17:26.159Z,4.45
2022-11-09T10:20:04.629Z,1.73
2022-11-09T10:23:01.763Z,2.58
2022-11-09T10:26:02.174Z,3.72
2022-11-09T10:28:18.406Z,2.17
2022-11-09T10:30:46.197Z,3.47
2022-11-09T10:33:21.284Z,2.47
2022-11-09T10:36:08.547Z,2.10
2022-11-09T10:38:49.134Z,3.20
2022-11-09T10:41:46.288Z,6.03
2022-11-09T10:44:19.298Z,3.95
2022-11-09T10:47:26.278Z,4.53
2022-11-09T10:50:15.569Z,1.75
2022-11-09T10:52:47.209Z,2.13
2022-11-09T10:55:28.141Z,1.63
2022-11-09T10:58:19.510Z,2.70
2022-11-09T11:01:03.650Z,2.03
2022-11-09T11:03:35.603Z,2.67
2022-11-09T11:06:09.247Z,3.30
2022-11-09T11:08:43.498Z,2.92
2022-11-09T11:11:37.822Z,3.03
2022-11-09T11:14:34.374Z,3.78
2022-11-09T11:17:01.489Z,2.20
2022-11-09T11:19:39.801Z,0.90
2022-11-09T11:22:12.679Z,0.82
2022-11-09T11:25:00.915Z,1.92
2022-11-09T11:27:33.138Z,2.42
2022-11-09T11:30:06.690Z,1.73
2022-11-09T11:32:33.564Z,1.63
2022-11-09T11:35:01.609Z,1.88
2022-11-09T11:37:54.973Z,1.13
2022-11-09T11:40:46.009Z,2.20
2022-11-09T11:43:46.453Z,1.08
2022-11-09T11:47:00.639Z,3.03
2022-11-09T11:50:20.101Z,2.03
2022-11-09T11:53:17.260Z,1.83
2022-11-09T11:56:04.862Z,1.50
2022-11-09T11:59:02.929Z,1.58
2022-11-09T12:01:42.746Z,2.72
2022-11-09T12:04:44.313Z,2.45
2022-11-09T12:08:07.091Z,2.70
2022-11-09T12:11:13.632Z,2.83
2022-11-09T12:14:10.021Z,6.43
2022-11-09T12:17:12.298Z,2.60
2022-11-09T12:19:59.347Z,5.30
2022-11-09T12:22:45.483Z,2.28
2022-11-09T12:25:38.301Z,1.88
2022-11-09T12:28:25.797Z,7.00
2022-11-09T12:31:01.673Z,7.55
2022-11-09T12:33:44.362Z,4.95
2022-11-09T12:36:24.573Z,3.67
2022-11-09T12:39:00.321Z,5.85
2022-11-09T12:41:34.976Z,13.68
2022-11-09T12:44:17.122Z,4.35
2022-11-09T12:46:50.173Z,6.38
2022-11-09T12:49:40.547Z,6.82
2022-11-09T12:52:19.284Z,2.78
2022-11-09T12:54:49.013Z,1.45
2022-11-09T12:57:25.070Z,1.17
2022-11-09T12:59:57.983Z,10.43
2022-11-09T13:02:32.349Z,12.70
2022-11-09T13:05:06.349Z,4.95
2022-11-09T13:07:51.504Z,4.60
2022-11-09T13:10:45.044Z,2.10
2022-11-09T13:13:13.380Z,2.30
2022-11-09T13:16:11.289Z,1.88
2022-11-09T13:19:06.079Z,3.22
2022-11-09T13:22:19.213Z,1.42
2022-11-09T13:24:59.839Z,2.20
2022-11-09T13:27:47.172Z,2.22
2022-11-09T13:30:28.240Z,2.25
2022-11-09T13:33:06.836Z,3.00
2022-11-09T13:35:42.616Z,3.25
2022-11-09T13:38:27.028Z,2.50
2022-11-09T13:40:59.319Z,2.38
2022-11-09T13:43:26.898Z,2.72
2022-11-09T13:46:25.053Z,4.85
2022-11-09T13:48:55.593Z,4.63
2022-11-09T13:51:35.656Z,2.70
2022-11-09T13:54:29.565Z,3.33
2022-11-09T13:56:57.268Z,2.50
2022-11-09T13:59:33.422Z,3.17
2022-11-09T14:02:02.102Z,4.50
2022-11-09T14:04:35.620Z,2.97
2022-11-09T14:07:29.075Z,5.05
2022-11-09T14:10:32.871Z,3.00
2022-11-09T14:13:11.387Z,4.78
2022-11-09T14:15:45.727Z,2.50
2022-11-09T14:18:34.045Z,2.45
2022-11-09T14:21:48.083Z,5.53
2022-11-09T14:24:29.656Z,3.42
2022-11-09T14:27:10.246Z,4.80
2022-11-09T14:30:00.931Z,3.20
2022-11-09T14:32:36.329Z,2.77
2022-11-09T14:35:32.410Z,4.15
2022-11-09T14:38:02.606Z,2.55
2022-11-09T14:40:32.004Z,3.40
2022-11-09T14:43:44.210Z,3.65
2022-11-09T14:46:29.286Z,2.47
2022-11-09T14:49:01.169Z,2.92
2022-11-09T14:51:38.306Z,4.50
2022-11-09T14:54:13.348Z,3.72
2022-11-09T14:56:42.526Z,3.25
2022-11-09T14:59:26.267Z,3.03
2022-11-09T15:02:04.295Z,2.90
2022-11-09T15:04:31.439Z,3.85
2022-11-09T15:07:04.345Z,4.32
2022-11-09T15:09:48.105Z,4.10
2022-11-09T15:12:17.314Z,3.38
2022-11-09T15:15:01.395Z,3.20
2022-11-09T15:17:32.314Z,4.20
2022-11-09T15:20:31.302Z,4.72
2022-11-09T15:23:25.093Z,4.70
2022-11-09T15:25:56.224Z,3.75
2022-11-09T15:28:27.352Z,3.80
2022-11-09T15:30:54.047Z,3.42
2022-11-09T15:33:38.850Z,3.45
2022-11-09T15:36:19.707Z,3.20
2022-11-09T15:39:02.426Z,3.88
2022-11-09T15:41:29.531Z,4.30
2022-11-09T15:43:56.385Z,3.80
2022-11-09T15:46:30.005Z,5.10
2022-11-09T15:49:27.413Z,3.83
2022-11-09T15:51:55.150Z,5.55
2022-11-09T15:54:24.219Z,5.22
2022-11-09T15:56:51.376Z,5.60
2022-11-09T15:59:26.075Z,4.82
2022-11-09T16:01:53.220Z,4.03
2022-11-09T16:04:20.021Z,5.68
2022-11-09T16:06:47.228Z,5.03
2022-11-09T16:09:15.054Z,5.00
2022-11-09T16:11:42.097Z,5.88
2022-11-09T16:14:08.867Z,12.02
2022-11-09T16:16:35.664Z,7.32
2022-11-09T16:19:02.453Z,3.20
2022-11-09T16:21:29.276Z,5.75
2022-11-09T16:23:58.693Z,11.23
2022-11-09T16:26:25.963Z,10.43
2022-11-09T16:28:54.560Z,2.53
2022-11-09T16:31:41.169Z,2.35
2022-11-09T16:34:08.222Z,6.97
2022-11-09T16:36:37.131Z,6.57
2022-11-09T16:39:09.312Z,3.70
2022-11-09T16:41:40.799Z,2.28
2022-11-09T16:44:07.649Z,1.40
2022-11-09T16:46:35.026Z,1.58
2022-11-09T16:49:02.760Z,3.80
2022-11-09T16:51:30.263Z,1.58
2022-11-09T16:53:57.043Z,1.55
2022-11-09T16:56:24.141Z,1.85
2022-11-09T16:58:51.007Z,1.48
2022-11-09T17:01:22.217Z,1.30
2022-11-09T17:03:50.375Z,1.13
2022-11-09T17:06:17.250Z,1.33
2022-11-09T17:08:43.997Z,1.23
2022-11-09T17:11:17.580Z,2.03
2022-11-09T17:13:44.392Z,1.10
2022-11-09T17:16:13.353Z,1.27
2022-11-09T17:18:42.707Z,0.47
2022-11-09T17:21:12.061Z,1.83
2022-11-09T17:23:39.154Z,2.10
2022-11-09T17:26:08.231Z,4.45
2022-11-09T17:28:41.476Z,0.90
2022-11-09T17:31:23.105Z,1.67
2022-11-09T17:33:50.076Z,1.30
2022-11-09T17:36:29.881Z,1.77
2022-11-09T17:39:06.217Z,2.40
2022-11-09T17:41:33.013Z,8.50
2022-11-09T17:44:02.845Z,8.18
2022-11-09T17:46:29.650Z,1.90
2022-11-09T17:48:56.430Z,8.20
2022-11-09T17:51:23.639Z,3.25
2022-11-09T17:53:50.783Z,9.25
2022-11-09T17:56:17.544Z,4.43
2022-11-09T17:58:45.593Z,2.17
2022-11-09T18:01:16.389Z,2.97
2022-11-09T18:03:43.565Z,4.65
2022-11-09T18:06:14.071Z,3.40
2022-11-09T18:08:41.273Z,4.60
2022-11-09T18:11:08.931Z,1.88
2022-11-09T18:13:36.198Z,3.80
2022-11-09T18:16:17.902Z,1.70
2022-11-09T18:18:45.394Z,1.00
2022-11-09T18:21:16.608Z,3.42
2022-11-09T18:23:44.930Z,3.00
2022-11-09T18:26:13.394Z,1.20
2022-11-09T18:28:40.150Z,3.65
2022-11-09T18:31:11.100Z,0.77
2022-11-09T18:33:39.890Z,1.45
2022-11-09T18:36:11.382Z,0.80
2022-11-09T18:38:39.485Z,2.22
2022-11-09T18:41:08.919Z,1.77
2022-11-09T18:43:36.063Z,2.63
2022-11-09T18:46:09.265Z,2.03
2022-11-09T18:48:37.569Z,0.82
2022-11-09T18:51:06.490Z,1.30
2022-11-09T18:53:40.006Z,0.90
2022-11-09T18:56:23.033Z,0.93
2022-11-09T18:58:55.819Z,3.10
2022-11-09T19:01:24.950Z,6.45
2022-11-09T19:03:57.763Z,2.00
2022-11-09T19:06:26.837Z,1.50
2022-11-09T19:09:11.950Z,1.10
2022-11-09T19:11:38.967Z,3.03
2022-11-09T19:14:05.951Z,1.60
2022-11-09T19:16:32.830Z,3.38
2022-11-09T19:18:59.658Z,16.85
2022-11-09T19:21:44.589Z,1.98
2022-11-09T19:24:17.802Z,2.00
2022-11-09T19:26:45.403Z,3.45
2022-11-09T19:29:14.343Z,1.23
2022-11-09T19:31:43.239Z,1.40
2022-11-09T19:34:21.295Z,1.58
2022-11-09T19:36:48.559Z,1.92
2022-11-09T19:39:16.322Z,3.08
2022-11-09T19:41:43.683Z,2.05
2022-11-09T19:44:12.998Z,1.33
2022-11-09T19:46:39.958Z,2.05
2022-11-09T19:49:07.529Z,1.55
2022-11-09T19:51:34.875Z,2.22
2022-11-09T19:54:04.259Z,3.60
2022-11-09T19:56:33.039Z,5.30
2022-11-09T19:59:01.950Z,3.33
2022-11-09T20:01:30.675Z,2.22
2022-11-09T20:04:00.499Z,2.80
2022-11-09T20:06:28.565Z,2.75
2022-11-09T20:08:56.029Z,3.55
2022-11-09T20:11:51.181Z,3.63
2022-11-09T20:14:25.411Z,3.60
2022-11-09T20:17:03.041Z,5.53
2022-11-09T20:19:32.225Z,4.55
2022-11-09T20:22:11.385Z,2.72
2022-11-09T20:24:50.085Z,3.40
2022-11-09T20:31:59.861Z,3.95
2022-11-09T20:35:00.262Z,3.50
2022-11-09T20:37:59.242Z,2.40
2022-11-09T20:40:26.001Z,3.20
2022-11-09T20:42:52.867Z,3.33
2022-11-09T20:45:19.652Z,4.82
2022-11-09T20:50:33.762Z,4.50
2022-11-09T20:53:00.503Z,4.18
2022-11-09T20:55:27.280Z,8.23
2022-11-09T20:57:54.601Z,6.13
2022-11-09T21:00:24.405Z,8.63
2022-11-09T21:02:51.491Z,6.93
2022-11-09T21:05:18.280Z,5.15
2022-11-09T21:07:45.418Z,6.65
2022-11-09T21:10:12.149Z,6.97
2022-11-09T21:12:38.903Z,8.35
2022-11-09T21:15:06.642Z,4.28
2022-11-09T21:17:34.327Z,5.38
2022-11-09T21:20:01.057Z,4.93
2022-11-09T21:22:47.750Z,5.38
2022-11-09T21:25:33.139Z,5.38
2022-11-09T21:28:18.624Z,5.97
2022-11-09T21:30:45.491Z,6.72
2022-11-09T21:33:12.253Z,4.75
2022-11-09T21:35:38.970Z,2.00
2022-11-09T21:38:05.706Z,3.78
2022-11-09T21:40:32.433Z,2.53
2022-11-09T21:42:59.153Z,3.05
2022-11-09T21:45:25.957Z,2.67
2022-11-09T21:47:54.537Z,2.72
2022-11-09T21:50:21.285Z,4.18
2022-11-09T21:52:48.005Z,3.67
2022-11-09T21:55:14.863Z,3.05
2022-11-09T21:57:42.343Z,4.70
2022-11-09T22:00:10.750Z,3.33
2022-11-09T22:02:37.469Z,4.22
2022-11-09T22:05:04.658Z,4.55
2022-11-09T22:07:31.387Z,3.50
2022-11-09T22:10:10.003Z,2.78
2022-11-09T22:12:56.907Z,3.90
2022-11-09T22:15:42.325Z,6.32
2022-11-09T22:18:29.024Z,3.35
2022-11-09T22:20:56.747Z,3.92
2022-11-09T22:23:23.663Z,3.70
2022-11-09T22:25:50.620Z,3.92
2022-11-09T22:28:17.506Z,3.30
2022-11-09T22:30:44.220Z,4.40
2022-11-09T22:33:11.003Z,5.68
2022-11-09T22:35:37.726Z,6.75
2022-11-09T22:38:04.486Z,6.40
2022-11-09T22:40:31.224Z,5.70
2022-11-09T22:42:58.245Z,10.20
2022-11-09T22:45:25.082Z,4.88
2022-11-09T22:47:51.818Z,16.83
2022-11-09T22:50:18.618Z,8.18
2022-11-09T22:52:45.348Z,8.80
2022-11-09T22:55:12.102Z,7.32
2022-11-09T22:57:38.817Z,10.32
2022-11-09T23:00:06.432Z,8.38
2022-11-09T23:02:33.160Z,7.53
2022-11-09T23:04:59.894Z,8.00
2022-11-09T23:07:26.629Z,6.80
2022-11-09T23:09:53.499Z,9.20
2022-11-09T23:12:20.212Z,12.15
2022-11-09T23:15:04.898Z,8.82
2022-11-09T23:18:00.111Z,11.95
2022-11-09T23:20:31.206Z,15.48
2022-11-09T23:23:01.040Z,16.35
2022-11-09T23:25:46.236Z,18.00
2022-11-09T23:28:13.560Z,15.98
2022-11-09T23:30:40.584Z,18.17
2022-11-09T23:33:07.864Z,21.88
2022-11-09T23:35:35.324Z,14.73
2022-11-09T23:38:04.490Z,17.83
2022-11-09T23:40:33.813Z,19.45
2022-11-09T23:43:10.339Z,18.35
2022-11-09T23:45:39.339Z,19.30
2022-11-09T23:48:07.422Z,21.55
2022-11-09T23:50:34.210Z,23.88
2022-11-09T23:53:01.345Z,26.33
2022-11-09T23:55:29.534Z,21.88
2022-11-09T23:57:56.487Z,28.10
